sensor_id;sensor_type;location;lat;lon;timestamp;P1;P2;P0
76661;PMS5003;65579;45.534;6.212;2023-07-30T00:00:18;10;10;
76661;PMS5003;65579;45.534;6.212;2023-07-30T00:02:43;11;11;
76661;PMS5003;65579;45.534;6.212;2023-07-30T00:05:09;7;7;
76661;PMS5003;65579;45.534;6.212;2023-07-30T00:07:35;9;9;
76661;PMS5003;65579;45.534;6.212;2023-07-30T00:10:00;9;9;
76661;PMS5003;65579;45.534;6.212;2023-07-30T00:12:26;7;7;
76661;PMS5003;65579;45.534;6.212;2023-07-30T00:14:52;10;10;
76661;PMS5003;65579;45.534;6.212;2023-07-30T00:17:18;11;10;
76661;PMS5003;65579;45.534;6.212;2023-07-30T00:19:43;7;7;
76661;PMS5003;65579;45.534;6.212;2023-07-30T00:22:09;8;8;
76661;PMS5003;65579;45.534;6.212;2023-07-30T00:24:35;11;10;
76661;PMS5003;65579;45.534;6.212;2023-07-30T00:27:01;9;9;
76661;PMS5003;65579;45.534;6.212;2023-07-30T00:29:26;7;7;
76661;PMS5003;65579;45.534;6.212;2023-07-30T00:31:52;8;8;
76661;PMS5003;65579;45.534;6.212;2023-07-30T00:34:18;12;10;
76661;PMS5003;65579;45.534;6.212;2023-07-30T00:36:44;9;9;
76661;PMS5003;65579;45.534;6.212;2023-07-30T00:39:09;10;9;
76661;PMS5003;65579;45.534;6.212;2023-07-30T00:41:35;8;8;
76661;PMS5003;65579;45.534;6.212;2023-07-30T00:44:00;8;8;
76661;PMS5003;65579;45.534;6.212;2023-07-30T00:46:26;7;7;
76661;PMS5003;65579;45.534;6.212;2023-07-30T00:48:52;16;16;
76661;PMS5003;65579;45.534;6.212;2023-07-30T00:51:17;8;8;
76661;PMS5003;65579;45.534;6.212;2023-07-30T00:53:42;5;5;
76661;PMS5003;65579;45.534;6.212;2023-07-30T00:56:08;8;8;
76661;PMS5003;65579;45.534;6.212;2023-07-30T00:58:34;8;8;
76661;PMS5003;65579;45.534;6.212;2023-07-30T01:01:00;8;8;
76661;PMS5003;65579;45.534;6.212;2023-07-30T01:03:26;9;9;
76661;PMS5003;65579;45.534;6.212;2023-07-30T01:05:51;11;10;
76661;PMS5003;65579;45.534;6.212;2023-07-30T01:08:16;10;10;
76661;PMS5003;65579;45.534;6.212;2023-07-30T01:10:41;6;6;
76661;PMS5003;65579;45.534;6.212;2023-07-30T01:13:07;9;9;
76661;PMS5003;65579;45.534;6.212;2023-07-30T01:15:33;7;7;
76661;PMS5003;65579;45.534;6.212;2023-07-30T01:17:58;13;13;
76661;PMS5003;65579;45.534;6.212;2023-07-30T01:20:24;8;8;
76661;PMS5003;65579;45.534;6.212;2023-07-30T01:22:50;8;8;
76661;PMS5003;65579;45.534;6.212;2023-07-30T01:25:16;8;8;
76661;PMS5003;65579;45.534;6.212;2023-07-30T01:27:43;8;8;
76661;PMS5003;65579;45.534;6.212;2023-07-30T01:30:10;9;8;
76661;PMS5003;65579;45.534;6.212;2023-07-30T01:32:33;10;8;
76661;PMS5003;65579;45.534;6.212;2023-07-30T01:35:01;8;8;
76661;PMS5003;65579;45.534;6.212;2023-07-30T01:37:24;10;10;
76661;PMS5003;65579;45.534;6.212;2023-07-30T01:39:50;10;10;
76661;PMS5003;65579;45.534;6.212;2023-07-30T01:42:16;8;7;
76661;PMS5003;65579;45.534;6.212;2023-07-30T01:44:42;7;7;
76661;PMS5003;65579;45.534;6.212;2023-07-30T01:47:07;8;8;
76661;PMS5003;65579;45.534;6.212;2023-07-30T01:49:33;12;9;
76661;PMS5003;65579;45.534;6.212;2023-07-30T01:51:59;7;7;
76661;PMS5003;65579;45.534;6.212;2023-07-30T01:54:25;11;10;
76661;PMS5003;65579;45.534;6.212;2023-07-30T01:56:51;8;8;
76661;PMS5003;65579;45.534;6.212;2023-07-30T01:59:16;6;6;
76661;PMS5003;65579;45.534;6.212;2023-07-30T02:01:42;7;7;
76661;PMS5003;65579;45.534;6.212;2023-07-30T02:04:08;7;7;
76661;PMS5003;65579;45.534;6.212;2023-07-30T02:06:34;9;8;
76661;PMS5003;65579;45.534;6.212;2023-07-30T02:08:59;7;7;
76661;PMS5003;65579;45.534;6.212;2023-07-30T02:11:25;9;9;
76661;PMS5003;65579;45.534;6.212;2023-07-30T02:13:51;5;5;
76661;PMS5003;65579;45.534;6.212;2023-07-30T02:16:16;8;7;
76661;PMS5003;65579;45.534;6.212;2023-07-30T02:18:42;8;8;
76661;PMS5003;65579;45.534;6.212;2023-07-30T02:21:08;8;8;
76661;PMS5003;65579;45.534;6.212;2023-07-30T02:23:34;8;8;
76661;PMS5003;65579;45.534;6.212;2023-07-30T02:25:59;9;8;
76661;PMS5003;65579;45.534;6.212;2023-07-30T02:28:25;6;6;
76661;PMS5003;65579;45.534;6.212;2023-07-30T02:30:50;6;6;
76661;PMS5003;65579;45.534;6.212;2023-07-30T02:33:16;8;6;
76661;PMS5003;65579;45.534;6.212;2023-07-30T02:35:42;8;7;
76661;PMS5003;65579;45.534;6.212;2023-07-30T02:38:07;8;8;
76661;PMS5003;65579;45.534;6.212;2023-07-30T02:40:33;6;6;
76661;PMS5003;65579;45.534;6.212;2023-07-30T02:42:59;6;6;
76661;PMS5003;65579;45.534;6.212;2023-07-30T02:45:25;8;8;
76661;PMS5003;65579;45.534;6.212;2023-07-30T02:47:51;8;8;
76661;PMS5003;65579;45.534;6.212;2023-07-30T02:50:16;10;10;
76661;PMS5003;65579;45.534;6.212;2023-07-30T02:52:42;10;8;
76661;PMS5003;65579;45.534;6.212;2023-07-30T02:55:08;8;8;
76661;PMS5003;65579;45.534;6.212;2023-07-30T02:57:33;9;9;
76661;PMS5003;65579;45.534;6.212;2023-07-30T02:59:59;8;8;
76661;PMS5003;65579;45.534;6.212;2023-07-30T03:02:25;8;8;
76661;PMS5003;65579;45.534;6.212;2023-07-30T03:04:51;9;9;
76661;PMS5003;65579;45.534;6.212;2023-07-30T03:07:16;8;8;
76661;PMS5003;65579;45.534;6.212;2023-07-30T03:09:42;9;9;
76661;PMS5003;65579;45.534;6.212;2023-07-30T03:12:08;7;7;
76661;PMS5003;65579;45.534;6.212;2023-07-30T03:14:34;7;7;
76661;PMS5003;65579;45.534;6.212;2023-07-30T03:16:59;8;8;
76661;PMS5003;65579;45.534;6.212;2023-07-30T03:19:25;11;8;
76661;PMS5003;65579;45.534;6.212;2023-07-30T03:21:51;11;9;
76661;PMS5003;65579;45.534;6.212;2023-07-30T03:24:17;8;8;
76661;PMS5003;65579;45.534;6.212;2023-07-30T03:26:43;8;8;
76661;PMS5003;65579;45.534;6.212;2023-07-30T03:29:09;9;8;
76661;PMS5003;65579;45.534;6.212;2023-07-30T03:31:34;7;7;
76661;PMS5003;65579;45.534;6.212;2023-07-30T03:34:00;8;8;
76661;PMS5003;65579;45.534;6.212;2023-07-30T03:36:26;11;10;
76661;PMS5003;65579;45.534;6.212;2023-07-30T03:38:52;9;8;
76661;PMS5003;65579;45.534;6.212;2023-07-30T03:41:17;7;7;
76661;PMS5003;65579;45.534;6.212;2023-07-30T03:43:43;8;8;
76661;PMS5003;65579;45.534;6.212;2023-07-30T03:46:09;9;9;
76661;PMS5003;65579;45.534;6.212;2023-07-30T03:48:34;10;9;
76661;PMS5003;65579;45.534;6.212;2023-07-30T03:51:00;10;10;
76661;PMS5003;65579;45.534;6.212;2023-07-30T03:53:26;7;7;
76661;PMS5003;65579;45.534;6.212;2023-07-30T03:55:51;8;8;
76661;PMS5003;65579;45.534;6.212;2023-07-30T03:58:17;8;7;
76661;PMS5003;65579;45.534;6.212;2023-07-30T04:00:43;6;6;
76661;PMS5003;65579;45.534;6.212;2023-07-30T04:03:09;6;6;
76661;PMS5003;65579;45.534;6.212;2023-07-30T04:05:34;11;11;
76661;PMS5003;65579;45.534;6.212;2023-07-30T04:08:00;8;7;
76661;PMS5003;65579;45.534;6.212;2023-07-30T04:10:25;8;8;
76661;PMS5003;65579;45.534;6.212;2023-07-30T04:12:51;9;8;
76661;PMS5003;65579;45.534;6.212;2023-07-30T04:15:17;7;7;
76661;PMS5003;65579;45.534;6.212;2023-07-30T04:17:43;10;8;
76661;PMS5003;65579;45.534;6.212;2023-07-30T04:20:09;7;7;
76661;PMS5003;65579;45.534;6.212;2023-07-30T04:22:35;8;8;
76661;PMS5003;65579;45.534;6.212;2023-07-30T04:25:00;7;7;
76661;PMS5003;65579;45.534;6.212;2023-07-30T04:27:26;10;10;
76661;PMS5003;65579;45.534;6.212;2023-07-30T04:29:51;7;7;
76661;PMS5003;65579;45.534;6.212;2023-07-30T04:32:17;8;7;
76661;PMS5003;65579;45.534;6.212;2023-07-30T04:34:43;8;8;
76661;PMS5003;65579;45.534;6.212;2023-07-30T04:37:09;9;9;
76661;PMS5003;65579;45.534;6.212;2023-07-30T04:39:35;11;11;
76661;PMS5003;65579;45.534;6.212;2023-07-30T04:42:02;8;7;
76661;PMS5003;65579;45.534;6.212;2023-07-30T04:44:26;10;10;
76661;PMS5003;65579;45.534;6.212;2023-07-30T04:46:52;7;7;
76661;PMS5003;65579;45.534;6.212;2023-07-30T04:49:18;8;7;
76661;PMS5003;65579;45.534;6.212;2023-07-30T04:51:44;9;9;
76661;PMS5003;65579;45.534;6.212;2023-07-30T04:54:10;10;9;
76661;PMS5003;65579;45.534;6.212;2023-07-30T04:56:35;7;7;
76661;PMS5003;65579;45.534;6.212;2023-07-30T04:59:01;10;8;
76661;PMS5003;65579;45.534;6.212;2023-07-30T05:01:27;9;9;
76661;PMS5003;65579;45.534;6.212;2023-07-30T05:03:53;10;9;
76661;PMS5003;65579;45.534;6.212;2023-07-30T05:06:18;8;8;
76661;PMS5003;65579;45.534;6.212;2023-07-30T05:08:44;10;8;
76661;PMS5003;65579;45.534;6.212;2023-07-30T05:11:09;9;9;
76661;PMS5003;65579;45.534;6.212;2023-07-30T05:13:35;7;7;
76661;PMS5003;65579;45.534;6.212;2023-07-30T05:16:01;8;8;
76661;PMS5003;65579;45.534;6.212;2023-07-30T05:18:26;9;9;
76661;PMS5003;65579;45.534;6.212;2023-07-30T05:20:52;9;9;
76661;PMS5003;65579;45.534;6.212;2023-07-30T05:23:18;11;10;
76661;PMS5003;65579;45.534;6.212;2023-07-30T05:25:43;9;9;
76661;PMS5003;65579;45.534;6.212;2023-07-30T05:28:09;8;8;
76661;PMS5003;65579;45.534;6.212;2023-07-30T05:30:35;10;10;
76661;PMS5003;65579;45.534;6.212;2023-07-30T05:33:01;8;8;
76661;PMS5003;65579;45.534;6.212;2023-07-30T05:35:26;8;8;
76661;PMS5003;65579;45.534;6.212;2023-07-30T05:37:52;5;5;
76661;PMS5003;65579;45.534;6.212;2023-07-30T05:40:18;8;8;
76661;PMS5003;65579;45.534;6.212;2023-07-30T05:42:43;8;8;
76661;PMS5003;65579;45.534;6.212;2023-07-30T05:45:09;9;9;
76661;PMS5003;65579;45.534;6.212;2023-07-30T05:47:35;11;10;
76661;PMS5003;65579;45.534;6.212;2023-07-30T05:50:01;8;8;
76661;PMS5003;65579;45.534;6.212;2023-07-30T05:52:26;9;8;
76661;PMS5003;65579;45.534;6.212;2023-07-30T05:54:52;9;9;
76661;PMS5003;65579;45.534;6.212;2023-07-30T05:57:17;8;8;
76661;PMS5003;65579;45.534;6.212;2023-07-30T05:59:43;10;10;
76661;PMS5003;65579;45.534;6.212;2023-07-30T06:02:09;9;9;
76661;PMS5003;65579;45.534;6.212;2023-07-30T06:04:35;10;10;
76661;PMS5003;65579;45.534;6.212;2023-07-30T06:07:02;10;10;
76661;PMS5003;65579;45.534;6.212;2023-07-30T06:09:26;9;9;
76661;PMS5003;65579;45.534;6.212;2023-07-30T06:11:52;8;8;
76661;PMS5003;65579;45.534;6.212;2023-07-30T06:14:18;9;9;
76661;PMS5003;65579;45.534;6.212;2023-07-30T06:16:44;7;7;
76661;PMS5003;65579;45.534;6.212;2023-07-30T06:19:09;11;11;
76661;PMS5003;65579;45.534;6.212;2023-07-30T06:21:35;11;9;
76661;PMS5003;65579;45.534;6.212;2023-07-30T06:24:01;10;7;
76661;PMS5003;65579;45.534;6.212;2023-07-30T06:26:26;7;7;
76661;PMS5003;65579;45.534;6.212;2023-07-30T06:28:52;10;10;
76661;PMS5003;65579;45.534;6.212;2023-07-30T06:31:18;9;9;
76661;PMS5003;65579;45.534;6.212;2023-07-30T06:33:44;9;8;
76661;PMS5003;65579;45.534;6.212;2023-07-30T06:36:10;5;5;
76661;PMS5003;65579;45.534;6.212;2023-07-30T06:38:35;12;10;
76661;PMS5003;65579;45.534;6.212;2023-07-30T06:41:01;9;9;
76661;PMS5003;65579;45.534;6.212;2023-07-30T06:43:27;8;8;
76661;PMS5003;65579;45.534;6.212;2023-07-30T06:45:53;11;11;
76661;PMS5003;65579;45.534;6.212;2023-07-30T06:48:18;9;9;
76661;PMS5003;65579;45.534;6.212;2023-07-30T06:50:44;12;9;
76661;PMS5003;65579;45.534;6.212;2023-07-30T06:53:10;10;9;
76661;PMS5003;65579;45.534;6.212;2023-07-30T06:55:35;9;9;
76661;PMS5003;65579;45.534;6.212;2023-07-30T06:58:01;12;12;
76661;PMS5003;65579;45.534;6.212;2023-07-30T07:00:27;11;11;
76661;PMS5003;65579;45.534;6.212;2023-07-30T07:02:52;9;7;
76661;PMS5003;65579;45.534;6.212;2023-07-30T07:05:18;9;9;
76661;PMS5003;65579;45.534;6.212;2023-07-30T07:07:44;9;9;
76661;PMS5003;65579;45.534;6.212;2023-07-30T07:10:10;12;10;
76661;PMS5003;65579;45.534;6.212;2023-07-30T07:12:35;12;10;
76661;PMS5003;65579;45.534;6.212;2023-07-30T07:15:01;14;11;
76661;PMS5003;65579;45.534;6.212;2023-07-30T07:17:28;10;10;
76661;PMS5003;65579;45.534;6.212;2023-07-30T07:19:52;11;10;
76661;PMS5003;65579;45.534;6.212;2023-07-30T07:22:18;11;11;
76661;PMS5003;65579;45.534;6.212;2023-07-30T07:24:44;10;10;
76661;PMS5003;65579;45.534;6.212;2023-07-30T07:27:11;11;11;
76661;PMS5003;65579;45.534;6.212;2023-07-30T07:29:35;11;10;
76661;PMS5003;65579;45.534;6.212;2023-07-30T07:32:01;12;11;
76661;PMS5003;65579;45.534;6.212;2023-07-30T07:34:27;13;12;
76661;PMS5003;65579;45.534;6.212;2023-07-30T07:36:52;14;14;
76661;PMS5003;65579;45.534;6.212;2023-07-30T07:39:18;12;11;
76661;PMS5003;65579;45.534;6.212;2023-07-30T07:41:44;15;15;
76661;PMS5003;65579;45.534;6.212;2023-07-30T07:44:09;20;19;
76661;PMS5003;65579;45.534;6.212;2023-07-30T07:46:34;14;13;
76661;PMS5003;65579;45.534;6.212;2023-07-30T07:49:01;11;11;
76661;PMS5003;65579;45.534;6.212;2023-07-30T07:51:26;12;12;
76661;PMS5003;65579;45.534;6.212;2023-07-30T07:53:54;10;10;
76661;PMS5003;65579;45.534;6.212;2023-07-30T07:56:19;12;11;
76661;PMS5003;65579;45.534;6.212;2023-07-30T07:58:43;10;10;
76661;PMS5003;65579;45.534;6.212;2023-07-30T08:01:09;10;10;
76661;PMS5003;65579;45.534;6.212;2023-07-30T08:03:35;11;10;
76661;PMS5003;65579;45.534;6.212;2023-07-30T08:06:00;13;11;
76661;PMS5003;65579;45.534;6.212;2023-07-30T08:08:26;10;10;
76661;PMS5003;65579;45.534;6.212;2023-07-30T08:10:52;14;13;
76661;PMS5003;65579;45.534;6.212;2023-07-30T08:13:17;11;11;
76661;PMS5003;65579;45.534;6.212;2023-07-30T08:15:43;10;10;
76661;PMS5003;65579;45.534;6.212;2023-07-30T08:18:09;16;15;
76661;PMS5003;65579;45.534;6.212;2023-07-30T08:20:34;11;10;
76661;PMS5003;65579;45.534;6.212;2023-07-30T08:23:00;10;10;
76661;PMS5003;65579;45.534;6.212;2023-07-30T08:25:25;16;14;
76661;PMS5003;65579;45.534;6.212;2023-07-30T08:27:50;12;12;
76661;PMS5003;65579;45.534;6.212;2023-07-30T08:30:16;11;11;
76661;PMS5003;65579;45.534;6.212;2023-07-30T08:32:41;16;14;
76661;PMS5003;65579;45.534;6.212;2023-07-30T08:35:08;10;9;
76661;PMS5003;65579;45.534;6.212;2023-07-30T08:37:33;17;17;
76661;PMS5003;65579;45.534;6.212;2023-07-30T08:39:58;13;13;
76661;PMS5003;65579;45.534;6.212;2023-07-30T08:42:24;13;13;
76661;PMS5003;65579;45.534;6.212;2023-07-30T08:44:50;13;12;
76661;PMS5003;65579;45.534;6.212;2023-07-30T08:47:16;14;13;
76661;PMS5003;65579;45.534;6.212;2023-07-30T08:49:41;14;14;
76661;PMS5003;65579;45.534;6.212;2023-07-30T08:52:07;13;13;
76661;PMS5003;65579;45.534;6.212;2023-07-30T08:54:32;12;11;
76661;PMS5003;65579;45.534;6.212;2023-07-30T08:56:58;12;12;
76661;PMS5003;65579;45.534;6.212;2023-07-30T08:59:24;12;11;
76661;PMS5003;65579;45.534;6.212;2023-07-30T09:01:50;12;12;
76661;PMS5003;65579;45.534;6.212;2023-07-30T09:04:15;12;11;
76661;PMS5003;65579;45.534;6.212;2023-07-30T09:06:40;14;14;
76661;PMS5003;65579;45.534;6.212;2023-07-30T09:09:05;12;12;
76661;PMS5003;65579;45.534;6.212;2023-07-30T09:11:31;12;12;
76661;PMS5003;65579;45.534;6.212;2023-07-30T09:13:57;15;14;
76661;PMS5003;65579;45.534;6.212;2023-07-30T09:16:24;14;14;
76661;PMS5003;65579;45.534;6.212;2023-07-30T09:18:48;12;12;
76661;PMS5003;65579;45.534;6.212;2023-07-30T09:21:13;16;15;
76661;PMS5003;65579;45.534;6.212;2023-07-30T09:23:39;11;11;
76661;PMS5003;65579;45.534;6.212;2023-07-30T09:26:05;11;11;
76661;PMS5003;65579;45.534;6.212;2023-07-30T09:28:30;13;13;
76661;PMS5003;65579;45.534;6.212;2023-07-30T09:30:59;13;11;
76661;PMS5003;65579;45.534;6.212;2023-07-30T09:33:21;12;12;
76661;PMS5003;65579;45.534;6.212;2023-07-30T09:35:47;12;12;
76661;PMS5003;65579;45.534;6.212;2023-07-30T09:38:13;12;12;
76661;PMS5003;65579;45.534;6.212;2023-07-30T09:40:38;11;11;
76661;PMS5003;65579;45.534;6.212;2023-07-30T09:43:06;10;10;
76661;PMS5003;65579;45.534;6.212;2023-07-30T09:45:34;11;10;
76661;PMS5003;65579;45.534;6.212;2023-07-30T09:47:55;10;9;
76661;PMS5003;65579;45.534;6.212;2023-07-30T09:50:21;10;9;
76661;PMS5003;65579;45.534;6.212;2023-07-30T09:52:46;9;9;
76661;PMS5003;65579;45.534;6.212;2023-07-30T09:55:12;10;10;
76661;PMS5003;65579;45.534;6.212;2023-07-30T09:57:38;8;8;
76661;PMS5003;65579;45.534;6.212;2023-07-30T10:00:04;10;10;
76661;PMS5003;65579;45.534;6.212;2023-07-30T10:02:29;10;9;
76661;PMS5003;65579;45.534;6.212;2023-07-30T10:04:54;9;9;
76661;PMS5003;65579;45.534;6.212;2023-07-30T10:07:21;7;6;
76661;PMS5003;65579;45.534;6.212;2023-07-30T10:09:46;8;6;
76661;PMS5003;65579;45.534;6.212;2023-07-30T10:12:12;4;4;
76661;PMS5003;65579;45.534;6.212;2023-07-30T10:14:37;7;6;
76661;PMS5003;65579;45.534;6.212;2023-07-30T10:17:03;6;6;
76661;PMS5003;65579;45.534;6.212;2023-07-30T10:19:28;7;6;
76661;PMS5003;65579;45.534;6.212;2023-07-30T10:21:57;8;8;
76661;PMS5003;65579;45.534;6.212;2023-07-30T10:24:20;6;6;
76661;PMS5003;65579;45.534;6.212;2023-07-30T10:26:46;6;6;
76661;PMS5003;65579;45.534;6.212;2023-07-30T10:29:12;6;6;
76661;PMS5003;65579;45.534;6.212;2023-07-30T10:31:39;7;6;
76661;PMS5003;65579;45.534;6.212;2023-07-30T10:34:03;6;6;
76661;PMS5003;65579;45.534;6.212;2023-07-30T10:36:30;6;6;
76661;PMS5003;65579;45.534;6.212;2023-07-30T10:38:54;5;5;
76661;PMS5003;65579;45.534;6.212;2023-07-30T10:41:20;6;6;
76661;PMS5003;65579;45.534;6.212;2023-07-30T10:43:46;8;8;
76661;PMS5003;65579;45.534;6.212;2023-07-30T10:46:11;6;6;
76661;PMS5003;65579;45.534;6.212;2023-07-30T10:48:37;6;6;
76661;PMS5003;65579;45.534;6.212;2023-07-30T10:51:04;6;6;
76661;PMS5003;65579;45.534;6.212;2023-07-30T10:53:27;8;8;
76661;PMS5003;65579;45.534;6.212;2023-07-30T10:55:53;5;5;
76661;PMS5003;65579;45.534;6.212;2023-07-30T10:58:19;8;8;
76661;PMS5003;65579;45.534;6.212;2023-07-30T11:00:44;8;8;
76661;PMS5003;65579;45.534;6.212;2023-07-30T11:03:10;8;8;
76661;PMS5003;65579;45.534;6.212;2023-07-30T11:05:37;7;7;
76661;PMS5003;65579;45.534;6.212;2023-07-30T11:08:01;7;7;
76661;PMS5003;65579;45.534;6.212;2023-07-30T11:10:27;8;8;
76661;PMS5003;65579;45.534;6.212;2023-07-30T11:12:53;7;7;
76661;PMS5003;65579;45.534;6.212;2023-07-30T11:15:18;7;7;
76661;PMS5003;65579;45.534;6.212;2023-07-30T11:17:44;5;5;
76661;PMS5003;65579;45.534;6.212;2023-07-30T11:22:35;7;7;
76661;PMS5003;65579;45.534;6.212;2023-07-30T11:25:02;10;10;
76661;PMS5003;65579;45.534;6.212;2023-07-30T11:27:27;8;8;
76661;PMS5003;65579;45.534;6.212;2023-07-30T11:29:54;6;6;
76661;PMS5003;65579;45.534;6.212;2023-07-30T11:32:18;9;9;
76661;PMS5003;65579;45.534;6.212;2023-07-30T11:34:44;8;8;
76661;PMS5003;65579;45.534;6.212;2023-07-30T11:37:09;7;7;
76661;PMS5003;65579;45.534;6.212;2023-07-30T11:39:35;9;9;
76661;PMS5003;65579;45.534;6.212;2023-07-30T11:42:00;6;6;
76661;PMS5003;65579;45.534;6.212;2023-07-30T11:44:30;8;8;
76661;PMS5003;65579;45.534;6.212;2023-07-30T11:46:53;8;8;
76661;PMS5003;65579;45.534;6.212;2023-07-30T11:49:17;8;8;
76661;PMS5003;65579;45.534;6.212;2023-07-30T11:51:43;9;9;
76661;PMS5003;65579;45.534;6.212;2023-07-30T11:56:35;9;8;
76661;PMS5003;65579;45.534;6.212;2023-07-30T11:59:01;6;6;
76661;PMS5003;65579;45.534;6.212;2023-07-30T12:01:26;11;9;
76661;PMS5003;65579;45.534;6.212;2023-07-30T12:03:53;7;7;
76661;PMS5003;65579;45.534;6.212;2023-07-30T12:06:17;6;6;
76661;PMS5003;65579;45.534;6.212;2023-07-30T12:08:42;7;7;
76661;PMS5003;65579;45.534;6.212;2023-07-30T12:11:09;8;8;
76661;PMS5003;65579;45.534;6.212;2023-07-30T12:13:34;7;7;
76661;PMS5003;65579;45.534;6.212;2023-07-30T12:15:59;6;6;
76661;PMS5003;65579;45.534;6.212;2023-07-30T12:18:25;7;7;
76661;PMS5003;65579;45.534;6.212;2023-07-30T12:20:51;6;6;
76661;PMS5003;65579;45.534;6.212;2023-07-30T12:23:16;6;6;
76661;PMS5003;65579;45.534;6.212;2023-07-30T12:25:42;8;8;
76661;PMS5003;65579;45.534;6.212;2023-07-30T12:28:07;8;8;
76661;PMS5003;65579;45.534;6.212;2023-07-30T12:30:33;8;8;
76661;PMS5003;65579;45.534;6.212;2023-07-30T12:32:58;7;7;
76661;PMS5003;65579;45.534;6.212;2023-07-30T12:35:24;7;7;
76661;PMS5003;65579;45.534;6.212;2023-07-30T12:37:50;6;6;
76661;PMS5003;65579;45.534;6.212;2023-07-30T12:40:16;5;5;
76661;PMS5003;65579;45.534;6.212;2023-07-30T12:42:41;6;6;
76661;PMS5003;65579;45.534;6.212;2023-07-30T12:45:07;5;5;
76661;PMS5003;65579;45.534;6.212;2023-07-30T12:52:23;6;6;
76661;PMS5003;65579;45.534;6.212;2023-07-30T12:54:49;4;4;
76661;PMS5003;65579;45.534;6.212;2023-07-30T12:57:15;6;6;
76661;PMS5003;65579;45.534;6.212;2023-07-30T12:59:40;5;5;
76661;PMS5003;65579;45.534;6.212;2023-07-30T13:02:06;8;7;
76661;PMS5003;65579;45.534;6.212;2023-07-30T13:04:31;5;5;
76661;PMS5003;65579;45.534;6.212;2023-07-30T13:06:57;5;5;
76661;PMS5003;65579;45.534;6.212;2023-07-30T13:09:23;5;5;
76661;PMS5003;65579;45.534;6.212;2023-07-30T13:11:48;6;6;
76661;PMS5003;65579;45.534;6.212;2023-07-30T13:14:14;4;4;
76661;PMS5003;65579;45.534;6.212;2023-07-30T13:16:40;6;6;
76661;PMS5003;65579;45.534;6.212;2023-07-30T13:19:05;6;6;
76661;PMS5003;65579;45.534;6.212;2023-07-30T13:21:31;7;7;
76661;PMS5003;65579;45.534;6.212;2023-07-30T13:23:56;5;5;
76661;PMS5003;65579;45.534;6.212;2023-07-30T13:26:22;8;5;
76661;PMS5003;65579;45.534;6.212;2023-07-30T13:28:47;6;6;
76661;PMS5003;65579;45.534;6.212;2023-07-30T13:31:13;6;6;
76661;PMS5003;65579;45.534;6.212;2023-07-30T13:33:39;6;6;
76661;PMS5003;65579;45.534;6.212;2023-07-30T13:36:05;6;6;
76661;PMS5003;65579;45.534;6.212;2023-07-30T13:38:30;5;5;
76661;PMS5003;65579;45.534;6.212;2023-07-30T13:40:55;7;5;
76661;PMS5003;65579;45.534;6.212;2023-07-30T13:43:21;6;6;
76661;PMS5003;65579;45.534;6.212;2023-07-30T13:45:47;4;4;
76661;PMS5003;65579;45.534;6.212;2023-07-30T13:48:12;6;4;
76661;PMS5003;65579;45.534;6.212;2023-07-30T13:50:38;3;3;
76661;PMS5003;65579;45.534;6.212;2023-07-30T13:53:03;4;4;
76661;PMS5003;65579;45.534;6.212;2023-07-30T13:55:29;2;2;
76661;PMS5003;65579;45.534;6.212;2023-07-30T13:57:55;4;4;
76661;PMS5003;65579;45.534;6.212;2023-07-30T14:00:20;1;1;
76661;PMS5003;65579;45.534;6.212;2023-07-30T14:02:46;5;5;
76661;PMS5003;65579;45.534;6.212;2023-07-30T14:05:11;6;4;
76661;PMS5003;65579;45.534;6.212;2023-07-30T14:07:37;3;3;
76661;PMS5003;65579;45.534;6.212;2023-07-30T14:10:03;4;4;
76661;PMS5003;65579;45.534;6.212;2023-07-30T14:12:28;3;3;
76661;PMS5003;65579;45.534;6.212;2023-07-30T14:14:54;3;3;
76661;PMS5003;65579;45.534;6.212;2023-07-30T14:17:19;3;3;
76661;PMS5003;65579;45.534;6.212;2023-07-30T14:19:45;2;2;
76661;PMS5003;65579;45.534;6.212;2023-07-30T14:22:10;4;4;
76661;PMS5003;65579;45.534;6.212;2023-07-30T14:24:36;5;4;
76661;PMS5003;65579;45.534;6.212;2023-07-30T14:27:01;5;5;
76661;PMS5003;65579;45.534;6.212;2023-07-30T14:29:27;4;4;
76661;PMS5003;65579;45.534;6.212;2023-07-30T14:31:52;4;4;
76661;PMS5003;65579;45.534;6.212;2023-07-30T14:34:18;5;5;
76661;PMS5003;65579;45.534;6.212;2023-07-30T14:36:44;3;3;
76661;PMS5003;65579;45.534;6.212;2023-07-30T14:39:09;2;2;
76661;PMS5003;65579;45.534;6.212;2023-07-30T14:41:34;4;4;
76661;PMS5003;65579;45.534;6.212;2023-07-30T14:44:00;4;4;
76661;PMS5003;65579;45.534;6.212;2023-07-30T14:46:26;2;2;
76661;PMS5003;65579;45.534;6.212;2023-07-30T14:48:51;2;2;
76661;PMS5003;65579;45.534;6.212;2023-07-30T14:51:17;3;3;
76661;PMS5003;65579;45.534;6.212;2023-07-30T14:53:42;4;3;
76661;PMS5003;65579;45.534;6.212;2023-07-30T14:56:08;3;3;
76661;PMS5003;65579;45.534;6.212;2023-07-30T14:58:33;2;2;
76661;PMS5003;65579;45.534;6.212;2023-07-30T15:00:59;2;2;
76661;PMS5003;65579;45.534;6.212;2023-07-30T15:03:24;4;3;
76661;PMS5003;65579;45.534;6.212;2023-07-30T15:05:50;3;3;
76661;PMS5003;65579;45.534;6.212;2023-07-30T15:08:15;4;4;
76661;PMS5003;65579;45.534;6.212;2023-07-30T15:10:41;2;2;
76661;PMS5003;65579;45.534;6.212;2023-07-30T15:13:07;3;3;
76661;PMS5003;65579;45.534;6.212;2023-07-30T15:15:32;2;2;
76661;PMS5003;65579;45.534;6.212;2023-07-30T15:17:58;4;4;
76661;PMS5003;65579;45.534;6.212;2023-07-30T15:20:23;2;2;
76661;PMS5003;65579;45.534;6.212;2023-07-30T15:22:49;3;1;
76661;PMS5003;65579;45.534;6.212;2023-07-30T15:25:14;3;2;
76661;PMS5003;65579;45.534;6.212;2023-07-30T15:27:41;2;2;
76661;PMS5003;65579;45.534;6.212;2023-07-30T15:30:06;3;3;
76661;PMS5003;65579;45.534;6.212;2023-07-30T15:32:31;5;3;
76661;PMS5003;65579;45.534;6.212;2023-07-30T15:34:57;3;3;
76661;PMS5003;65579;45.534;6.212;2023-07-30T15:37:22;3;3;
76661;PMS5003;65579;45.534;6.212;2023-07-30T15:39:48;2;2;
76661;PMS5003;65579;45.534;6.212;2023-07-30T15:42:14;4;4;
76661;PMS5003;65579;45.534;6.212;2023-07-30T15:44:39;4;4;
76661;PMS5003;65579;45.534;6.212;2023-07-30T15:47:05;3;3;
76661;PMS5003;65579;45.534;6.212;2023-07-30T15:49:30;2;2;
76661;PMS5003;65579;45.534;6.212;2023-07-30T15:51:56;4;4;
76661;PMS5003;65579;45.534;6.212;2023-07-30T15:56:47;2;2;
76661;PMS5003;65579;45.534;6.212;2023-07-30T15:59:13;4;2;
76661;PMS5003;65579;45.534;6.212;2023-07-30T16:01:38;3;3;
76661;PMS5003;65579;45.534;6.212;2023-07-30T16:04:04;3;2;
76661;PMS5003;65579;45.534;6.212;2023-07-30T16:06:29;2;2;
76661;PMS5003;65579;45.534;6.212;2023-07-30T16:08:55;2;0;
76661;PMS5003;65579;45.534;6.212;2023-07-30T16:11:20;2;2;
76661;PMS5003;65579;45.534;6.212;2023-07-30T16:13:46;1;1;
76661;PMS5003;65579;45.534;6.212;2023-07-30T16:16:12;3;3;
76661;PMS5003;65579;45.534;6.212;2023-07-30T16:18:37;3;2;
76661;PMS5003;65579;45.534;6.212;2023-07-30T16:21:03;2;2;
76661;PMS5003;65579;45.534;6.212;2023-07-30T16:23:28;2;2;
76661;PMS5003;65579;45.534;6.212;2023-07-30T16:25:54;2;2;
76661;PMS5003;65579;45.534;6.212;2023-07-30T16:28:19;1;1;
76661;PMS5003;65579;45.534;6.212;2023-07-30T16:30:45;3;3;
76661;PMS5003;65579;45.534;6.212;2023-07-30T16:33:10;2;2;
76661;PMS5003;65579;45.534;6.212;2023-07-30T16:35:36;2;2;
76661;PMS5003;65579;45.534;6.212;2023-07-30T16:38:01;3;2;
76661;PMS5003;65579;45.534;6.212;2023-07-30T16:40:27;4;3;
76661;PMS5003;65579;45.534;6.212;2023-07-30T16:42:53;4;4;